sensor_id;sensor_type;location;lat;lon;timestamp;P1;durP1;ratioP1;P2;durP2;ratioP2
71769;SDS011;66386;52.122;5.420;2023-04-01T00:01:14;15.30;;;5.00;;
71769;SDS011;66386;52.122;5.420;2023-04-01T00:03:41;12.52;;;5.15;;
71769;SDS011;66386;52.122;5.420;2023-04-01T00:06:08;12.77;;;5.30;;
71769;SDS011;66386;52.122;5.420;2023-04-01T00:08:36;12.48;;;5.18;;
71769;SDS011;66386;52.122;5.420;2023-04-01T00:11:02;12.10;;;5.28;;
71769;SDS011;66386;52.122;5.420;2023-04-01T00:13:29;13.43;;;5.32;;
71769;SDS011;66386;52.122;5.420;2023-04-01T00:15:56;9.48;;;5.60;;
71769;SDS011;66386;52.122;5.420;2023-04-01T00:18:22;12.17;;;5.67;;
71769;SDS011;66386;52.122;5.420;2023-04-01T00:20:50;10.80;;;5.43;;
71769;SDS011;66386;52.122;5.420;2023-04-01T00:23:17;11.13;;;5.35;;
71769;SDS011;66386;52.122;5.420;2023-04-01T00:25:45;12.40;;;5.13;;
71769;SDS011;66386;52.122;5.420;2023-04-01T00:28:15;15.40;;;5.35;;
71769;SDS011;66386;52.122;5.420;2023-04-01T00:30:42;14.80;;;5.37;;
71769;SDS011;66386;52.122;5.420;2023-04-01T00:33:09;18.42;;;5.55;;
71769;SDS011;66386;52.122;5.420;2023-04-01T00:35:36;16.73;;;5.47;;
71769;SDS011;66386;52.122;5.420;2023-04-01T00:38:03;15.77;;;5.90;;
71769;SDS011;66386;52.122;5.420;2023-04-01T00:42:59;15.73;;;5.63;;
71769;SDS011;66386;52.122;5.420;2023-04-01T00:45:28;14.75;;;5.90;;
71769;SDS011;66386;52.122;5.420;2023-04-01T00:47:58;15.82;;;5.95;;
71769;SDS011;66386;52.122;5.420;2023-04-01T00:50:28;19.33;;;6.05;;
71769;SDS011;66386;52.122;5.420;2023-04-01T00:52:59;18.63;;;6.25;;
71769;SDS011;66386;52.122;5.420;2023-04-01T00:55:27;21.10;;;7.77;;
71769;SDS011;66386;52.122;5.420;2023-04-01T00:57:56;22.38;;;8.07;;
71769;SDS011;66386;52.122;5.420;2023-04-01T01:00:26;17.33;;;5.80;;
71769;SDS011;66386;52.122;5.420;2023-04-01T01:02:52;16.17;;;6.38;;
71769;SDS011;66386;52.122;5.420;2023-04-01T01:05:20;15.60;;;5.50;;
71769;SDS011;66386;52.122;5.420;2023-04-01T01:07:57;16.20;;;5.33;;
71769;SDS011;66386;52.122;5.420;2023-04-01T01:10:26;13.63;;;5.43;;
71769;SDS011;66386;52.122;5.420;2023-04-01T01:15:49;14.27;;;6.03;;
71769;SDS011;66386;52.122;5.420;2023-04-01T01:18:30;14.23;;;5.60;;
71769;SDS011;66386;52.122;5.420;2023-04-01T01:23:57;21.98;;;6.45;;
71769;SDS011;66386;52.122;5.420;2023-04-01T01:32:07;20.30;;;5.78;;
71769;SDS011;66386;52.122;5.420;2023-04-01T01:37:42;12.30;;;6.20;;
71769;SDS011;66386;52.122;5.420;2023-04-01T01:40:11;11.10;;;5.25;;
71769;SDS011;66386;52.122;5.420;2023-04-01T01:42:42;11.02;;;4.40;;
71769;SDS011;66386;52.122;5.420;2023-04-01T01:45:12;10.82;;;3.42;;
71769;SDS011;66386;52.122;5.420;2023-04-01T01:47:44;9.13;;;3.10;;
71769;SDS011;66386;52.122;5.420;2023-04-01T01:50:12;8.60;;;3.90;;
71769;SDS011;66386;52.122;5.420;2023-04-01T01:52:39;5.63;;;3.28;;
71769;SDS011;66386;52.122;5.420;2023-04-01T01:55:22;3.53;;;2.35;;
71769;SDS011;66386;52.122;5.420;2023-04-01T01:57:52;6.78;;;2.30;;
71769;SDS011;66386;52.122;5.420;2023-04-01T02:00:19;5.07;;;2.03;;
71769;SDS011;66386;52.122;5.420;2023-04-01T02:02:47;7.90;;;2.15;;
71769;SDS011;66386;52.122;5.420;2023-04-01T02:05:16;3.80;;;1.73;;
71769;SDS011;66386;52.122;5.420;2023-04-01T02:07:49;5.03;;;1.85;;
71769;SDS011;66386;52.122;5.420;2023-04-01T02:10:22;4.65;;;1.77;;
71769;SDS011;66386;52.122;5.420;2023-04-01T02:12:53;5.30;;;2.00;;
71769;SDS011;66386;52.122;5.420;2023-04-01T02:15:23;3.58;;;1.50;;
71769;SDS011;66386;52.122;5.420;2023-04-01T02:17:57;3.92;;;1.65;;
71769;SDS011;66386;52.122;5.420;2023-04-01T02:20:24;3.95;;;1.98;;
71769;SDS011;66386;52.122;5.420;2023-04-01T02:22:53;4.70;;;1.67;;
71769;SDS011;66386;52.122;5.420;2023-04-01T02:25:29;2.17;;;1.40;;
71769;SDS011;66386;52.122;5.420;2023-04-01T02:28:00;3.15;;;1.48;;
71769;SDS011;66386;52.122;5.420;2023-04-01T02:30:30;4.60;;;1.75;;
71769;SDS011;66386;52.122;5.420;2023-04-01T02:33:00;4.18;;;2.00;;
71769;SDS011;66386;52.122;5.420;2023-04-01T02:35:28;3.50;;;1.60;;
71769;SDS011;66386;52.122;5.420;2023-04-01T02:37:55;6.37;;;2.10;;
71769;SDS011;66386;52.122;5.420;2023-04-01T02:40:22;4.75;;;1.63;;
71769;SDS011;66386;52.122;5.420;2023-04-01T02:42:49;3.92;;;2.20;;
71769;SDS011;66386;52.122;5.420;2023-04-01T02:45:15;4.60;;;1.90;;
71769;SDS011;66386;52.122;5.420;2023-04-01T02:47:42;3.75;;;1.88;;
71769;SDS011;66386;52.122;5.420;2023-04-01T02:50:08;4.97;;;2.10;;
71769;SDS011;66386;52.122;5.420;2023-04-01T02:52:36;4.93;;;2.45;;
71769;SDS011;66386;52.122;5.420;2023-04-01T02:55:02;4.95;;;2.58;;
71769;SDS011;66386;52.122;5.420;2023-04-01T02:57:30;5.90;;;2.83;;
71769;SDS011;66386;52.122;5.420;2023-04-01T02:59:56;4.05;;;2.17;;
71769;SDS011;66386;52.122;5.420;2023-04-01T03:02:23;3.93;;;2.37;;
71769;SDS011;66386;52.122;5.420;2023-04-01T03:04:50;2.58;;;1.85;;
71769;SDS011;66386;52.122;5.420;2023-04-01T03:07:16;5.65;;;1.90;;
71769;SDS011;66386;52.122;5.420;2023-04-01T03:09:43;4.28;;;1.80;;
71769;SDS011;66386;52.122;5.420;2023-04-01T03:12:09;3.22;;;2.15;;
71769;SDS011;66386;52.122;5.420;2023-04-01T03:14:35;3.90;;;1.57;;
71769;SDS011;66386;52.122;5.420;2023-04-01T03:17:02;5.68;;;2.17;;
71769;SDS011;66386;52.122;5.420;2023-04-01T03:19:28;2.83;;;1.70;;
71769;SDS011;66386;52.122;5.420;2023-04-01T03:21:55;3.53;;;1.77;;
71769;SDS011;66386;52.122;5.420;2023-04-01T03:24:21;2.63;;;1.20;;
71769;SDS011;66386;52.122;5.420;2023-04-01T03:26:47;3.37;;;1.27;;
71769;SDS011;66386;52.122;5.420;2023-04-01T03:29:14;3.28;;;1.23;;
71769;SDS011;66386;52.122;5.420;2023-04-01T03:31:42;2.55;;;1.30;;
71769;SDS011;66386;52.122;5.420;2023-04-01T03:34:08;2.45;;;1.50;;
71769;SDS011;66386;52.122;5.420;2023-04-01T03:36:35;4.32;;;1.58;;
71769;SDS011;66386;52.122;5.420;2023-04-01T03:39:02;2.90;;;1.40;;
71769;SDS011;66386;52.122;5.420;2023-04-01T03:41:29;3.40;;;1.50;;
71769;SDS011;66386;52.122;5.420;2023-04-01T03:43:56;7.25;;;2.08;;
71769;SDS011;66386;52.122;5.420;2023-04-01T03:46:23;5.97;;;2.22;;
71769;SDS011;66386;52.122;5.420;2023-04-01T03:48:50;4.35;;;2.10;;
71769;SDS011;66386;52.122;5.420;2023-04-01T03:51:17;4.80;;;2.23;;
71769;SDS011;66386;52.122;5.420;2023-04-01T03:53:43;4.82;;;1.80;;
71769;SDS011;66386;52.122;5.420;2023-04-01T03:56:10;6.30;;;2.72;;
71769;SDS011;66386;52.122;5.420;2023-04-01T03:58:37;6.72;;;2.53;;
71769;SDS011;66386;52.122;5.420;2023-04-01T04:01:15;6.72;;;2.63;;
71769;SDS011;66386;52.122;5.420;2023-04-01T04:03:43;7.63;;;2.77;;
71769;SDS011;66386;52.122;5.420;2023-04-01T04:06:11;6.13;;;2.80;;
71769;SDS011;66386;52.122;5.420;2023-04-01T04:08:39;6.50;;;3.05;;
71769;SDS011;66386;52.122;5.420;2023-04-01T04:11:06;5.45;;;3.10;;
71769;SDS011;66386;52.122;5.420;2023-04-01T04:13:32;7.50;;;3.42;;
71769;SDS011;66386;52.122;5.420;2023-04-01T04:15:59;5.33;;;3.03;;
71769;SDS011;66386;52.122;5.420;2023-04-01T04:18:26;6.07;;;3.50;;
71769;SDS011;66386;52.122;5.420;2023-04-01T04:20:52;4.80;;;3.03;;
71769;SDS011;66386;52.122;5.420;2023-04-01T04:23:19;6.35;;;2.90;;
71769;SDS011;66386;52.122;5.420;2023-04-01T04:25:56;4.47;;;2.47;;
71769;SDS011;66386;52.122;5.420;2023-04-01T04:28:22;6.27;;;3.20;;
71769;SDS011;66386;52.122;5.420;2023-04-01T04:30:49;5.68;;;3.10;;
71769;SDS011;66386;52.122;5.420;2023-04-01T04:33:15;5.55;;;2.70;;
71769;SDS011;66386;52.122;5.420;2023-04-01T04:35:42;4.75;;;2.80;;
71769;SDS011;66386;52.122;5.420;2023-04-01T04:38:08;6.25;;;2.58;;
71769;SDS011;66386;52.122;5.420;2023-04-01T04:40:36;4.03;;;2.80;;
71769;SDS011;66386;52.122;5.420;2023-04-01T04:43:03;5.05;;;2.60;;
71769;SDS011;66386;52.122;5.420;2023-04-01T04:45:30;4.03;;;2.58;;
71769;SDS011;66386;52.122;5.420;2023-04-01T04:47:57;6.07;;;2.88;;
71769;SDS011;66386;52.122;5.420;2023-04-01T04:50:24;6.45;;;3.35;;
71769;SDS011;66386;52.122;5.420;2023-04-01T04:52:51;5.67;;;3.50;;
71769;SDS011;66386;52.122;5.420;2023-04-01T04:55:18;8.93;;;3.17;;
71769;SDS011;66386;52.122;5.420;2023-04-01T04:57:44;5.68;;;3.00;;
71769;SDS011;66386;52.122;5.420;2023-04-01T05:00:11;5.97;;;2.97;;
71769;SDS011;66386;52.122;5.420;2023-04-01T05:02:38;6.38;;;2.70;;
71769;SDS011;66386;52.122;5.420;2023-04-01T05:05:05;6.03;;;2.50;;
71769;SDS011;66386;52.122;5.420;2023-04-01T05:07:32;4.68;;;2.15;;
71769;SDS011;66386;52.122;5.420;2023-04-01T05:09:59;5.00;;;2.15;;
71769;SDS011;66386;52.122;5.420;2023-04-01T05:12:26;6.03;;;1.77;;
71769;SDS011;66386;52.122;5.420;2023-04-01T05:14:53;5.32;;;1.95;;
71769;SDS011;66386;52.122;5.420;2023-04-01T05:17:19;3.37;;;2.03;;
71769;SDS011;66386;52.122;5.420;2023-04-01T05:19:45;5.68;;;2.67;;
71769;SDS011;66386;52.122;5.420;2023-04-01T05:22:12;5.88;;;2.38;;
71769;SDS011;66386;52.122;5.420;2023-04-01T05:24:39;4.80;;;2.72;;
71769;SDS011;66386;52.122;5.420;2023-04-01T05:27:05;4.68;;;2.75;;
71769;SDS011;66386;52.122;5.420;2023-04-01T05:29:32;5.63;;;3.00;;
71769;SDS011;66386;52.122;5.420;2023-04-01T05:31:58;6.35;;;2.85;;
71769;SDS011;66386;52.122;5.420;2023-04-01T05:34:25;6.45;;;2.72;;
71769;SDS011;66386;52.122;5.420;2023-04-01T05:36:51;4.40;;;2.42;;
71769;SDS011;66386;52.122;5.420;2023-04-01T05:39:18;4.57;;;2.42;;
71769;SDS011;66386;52.122;5.420;2023-04-01T05:41:44;5.50;;;2.30;;
71769;SDS011;66386;52.122;5.420;2023-04-01T05:44:11;5.63;;;3.22;;
71769;SDS011;66386;52.122;5.420;2023-04-01T05:46:38;4.57;;;2.53;;
71769;SDS011;66386;52.122;5.420;2023-04-01T05:49:05;4.28;;;2.50;;
71769;SDS011;66386;52.122;5.420;2023-04-01T05:51:31;5.22;;;2.10;;
71769;SDS011;66386;52.122;5.420;2023-04-01T05:53:58;3.53;;;1.80;;
71769;SDS011;66386;52.122;5.420;2023-04-01T05:56:24;7.18;;;1.90;;
71769;SDS011;66386;52.122;5.420;2023-04-01T05:58:51;4.88;;;1.70;;
71769;SDS011;66386;52.122;5.420;2023-04-01T06:01:19;2.88;;;1.45;;
71769;SDS011;66386;52.122;5.420;2023-04-01T06:03:46;3.07;;;1.63;;
71769;SDS011;66386;52.122;5.420;2023-04-01T06:06:14;2.50;;;1.30;;
71769;SDS011;66386;52.122;5.420;2023-04-01T06:08:42;3.20;;;1.42;;
71769;SDS011;66386;52.122;5.420;2023-04-01T06:11:21;2.60;;;1.27;;
71769;SDS011;66386;52.122;5.420;2023-04-01T06:14:22;2.30;;;1.20;;
71769;SDS011;66386;52.122;5.420;2023-04-01T06:20:18;2.77;;;1.67;;
71769;SDS011;66386;52.122;5.420;2023-04-01T06:34:03;5.20;;;1.50;;
71769;SDS011;66386;52.122;5.420;2023-04-01T06:39:57;3.97;;;1.88;;
71769;SDS011;66386;52.122;5.420;2023-04-01T06:42:34;4.00;;;1.33;;
71769;SDS011;66386;52.122;5.420;2023-04-01T06:50:44;2.88;;;1.27;;
71769;SDS011;66386;52.122;5.420;2023-04-01T06:56:07;2.40;;;1.27;;
71769;SDS011;66386;52.122;5.420;2023-04-01T06:58:41;2.75;;;1.27;;
71769;SDS011;66386;52.122;5.420;2023-04-01T07:01:28;2.30;;;1.00;;
71769;SDS011;66386;52.122;5.420;2023-04-01T07:04:12;3.60;;;1.00;;
71769;SDS011;66386;52.122;5.420;2023-04-01T07:09:27;2.60;;;1.00;;
71769;SDS011;66386;52.122;5.420;2023-04-01T07:12:00;2.35;;;1.25;;
71769;SDS011;66386;52.122;5.420;2023-04-01T07:14:32;2.37;;;1.40;;
71769;SDS011;66386;52.122;5.420;2023-04-01T07:17:12;2.75;;;1.50;;
71769;SDS011;66386;52.122;5.420;2023-04-01T07:19:45;2.60;;;1.58;;
71769;SDS011;66386;52.122;5.420;2023-04-01T07:24:51;2.42;;;1.25;;
71769;SDS011;66386;52.122;5.420;2023-04-01T07:27:20;2.50;;;1.63;;
71769;SDS011;66386;52.122;5.420;2023-04-01T07:29:46;3.30;;;1.83;;
71769;SDS011;66386;52.122;5.420;2023-04-01T07:32:15;3.45;;;1.60;;
71769;SDS011;66386;52.122;5.420;2023-04-01T07:37:23;4.68;;;1.75;;
71769;SDS011;66386;52.122;5.420;2023-04-01T07:46:07;3.15;;;1.98;;
71769;SDS011;66386;52.122;5.420;2023-04-01T07:56:37;3.38;;;1.73;;
71769;SDS011;66386;52.122;5.420;2023-04-01T07:59:10;3.30;;;2.00;;
71769;SDS011;66386;52.122;5.420;2023-04-01T08:02:22;4.20;;;1.98;;
71769;SDS011;66386;52.122;5.420;2023-04-01T08:08:11;5.37;;;2.57;;
71769;SDS011;66386;52.122;5.420;2023-04-01T08:11:00;4.18;;;2.15;;
71769;SDS011;66386;52.122;5.420;2023-04-01T08:16:48;4.55;;;2.38;;
71769;SDS011;66386;52.122;5.420;2023-04-01T08:22:26;5.30;;;2.70;;
71769;SDS011;66386;52.122;5.420;2023-04-01T08:24:57;5.40;;;2.30;;
71769;SDS011;66386;52.122;5.420;2023-04-01T08:27:39;5.18;;;2.50;;
71769;SDS011;66386;52.122;5.420;2023-04-01T08:30:20;5.13;;;2.50;;
71769;SDS011;66386;52.122;5.420;2023-04-01T08:32:52;5.32;;;2.92;;
71769;SDS011;66386;52.122;5.420;2023-04-01T08:35:34;5.77;;;2.40;;
71769;SDS011;66386;52.122;5.420;2023-04-01T08:38:21;5.03;;;2.88;;
71769;SDS011;66386;52.122;5.420;2023-04-01T08:40:58;5.78;;;2.92;;
71769;SDS011;66386;52.122;5.420;2023-04-01T08:46:28;6.13;;;3.00;;
71769;SDS011;66386;52.122;5.420;2023-04-01T08:54:46;6.43;;;2.85;;
71769;SDS011;66386;52.122;5.420;2023-04-01T08:57:21;6.60;;;3.00;;
71769;SDS011;66386;52.122;5.420;2023-04-01T09:00:15;4.38;;;2.72;;
71769;SDS011;66386;52.122;5.420;2023-04-01T09:03:02;5.60;;;3.57;;
71769;SDS011;66386;52.122;5.420;2023-04-01T09:33:55;3.42;;;2.30;;
71769;SDS011;66386;52.122;5.420;2023-04-01T09:36:45;4.63;;;2.28;;
71769;SDS011;66386;52.122;5.420;2023-04-01T09:42:27;5.03;;;2.72;;
71769;SDS011;66386;52.122;5.420;2023-04-01T09:45:07;5.17;;;2.60;;
71769;SDS011;66386;52.122;5.420;2023-04-01T10:01:55;6.10;;;3.13;;
71769;SDS011;66386;52.122;5.420;2023-04-01T10:12:31;5.60;;;4.20;;
71769;SDS011;66386;52.122;5.420;2023-04-01T10:21:15;5.35;;;3.80;;
71769;SDS011;66386;52.122;5.420;2023-04-01T10:27:00;3.90;;;3.03;;
71769;SDS011;66386;52.122;5.420;2023-04-01T10:47:55;4.35;;;2.80;;
71769;SDS011;66386;52.122;5.420;2023-04-01T10:50:50;5.63;;;3.25;;
71769;SDS011;66386;52.122;5.420;2023-04-01T10:56:11;3.27;;;2.10;;
71769;SDS011;66386;52.122;5.420;2023-04-01T11:10:55;2.67;;;1.87;;
71769;SDS011;66386;52.122;5.420;2023-04-01T11:22:18;1.23;;;0.75;;
71769;SDS011;66386;52.122;5.420;2023-04-01T11:27:50;1.48;;;0.90;;
71769;SDS011;66386;52.122;5.420;2023-04-01T11:32:59;1.85;;;1.20;;
71769;SDS011;66386;52.122;5.420;2023-04-01T11:35:36;3.33;;;1.05;;
71769;SDS011;66386;52.122;5.420;2023-04-01T11:38:23;1.17;;;0.67;;
71769;SDS011;66386;52.122;5.420;2023-04-01T11:43:47;0.75;;;0.50;;
71769;SDS011;66386;52.122;5.420;2023-04-01T11:46:23;0.90;;;0.40;;
71769;SDS011;66386;52.122;5.420;2023-04-01T11:51:51;0.43;;;0.30;;
71769;SDS011;66386;52.122;5.420;2023-04-01T11:57:12;0.90;;;0.32;;
71769;SDS011;66386;52.122;5.420;2023-04-01T11:59:56;1.33;;;0.60;;
71769;SDS011;66386;52.122;5.420;2023-04-01T12:05:49;1.70;;;0.60;;
71769;SDS011;66386;52.122;5.420;2023-04-01T12:11:23;1.48;;;0.70;;
71769;SDS011;66386;52.122;5.420;2023-04-01T12:17:18;2.78;;;1.77;;
71769;SDS011;66386;52.122;5.420;2023-04-01T12:28:25;4.05;;;2.53;;
71769;SDS011;66386;52.122;5.420;2023-04-01T12:33:41;4.73;;;3.17;;
71769;SDS011;66386;52.122;5.420;2023-04-01T12:50:31;6.82;;;4.65;;
71769;SDS011;66386;52.122;5.420;2023-04-01T12:55:41;8.43;;;4.95;;
71769;SDS011;66386;52.122;5.420;2023-04-01T13:17:15;5.65;;;4.07;;
71769;SDS011;66386;52.122;5.420;2023-04-01T13:25:24;5.80;;;3.83;;
71769;SDS011;66386;52.122;5.420;2023-04-01T13:39:48;3.45;;;2.58;;
71769;SDS011;66386;52.122;5.420;2023-04-01T13:42:21;3.57;;;2.03;;
71769;SDS011;66386;52.122;5.420;2023-04-01T13:53:17;3.08;;;2.28;;
71769;SDS011;66386;52.122;5.420;2023-04-01T14:07:01;2.75;;;1.63;;
71769;SDS011;66386;52.122;5.420;2023-04-01T14:09:39;2.70;;;1.80;;
71769;SDS011;66386;52.122;5.420;2023-04-01T14:21:37;3.72;;;2.47;;
71769;SDS011;66386;52.122;5.420;2023-04-01T14:26:55;4.72;;;3.03;;
71769;SDS011;66386;52.122;5.420;2023-04-01T14:35:15;3.55;;;2.75;;
71769;SDS011;66386;52.122;5.420;2023-04-01T14:41:13;7.07;;;2.85;;
71769;SDS011;66386;52.122;5.420;2023-04-01T14:49:37;3.78;;;2.60;;
71769;SDS011;66386;52.122;5.420;2023-04-01T14:52:10;5.23;;;3.17;;
71769;SDS011;66386;52.122;5.420;2023-04-01T14:55:01;3.90;;;2.53;;
71769;SDS011;66386;52.122;5.420;2023-04-01T14:57:57;3.70;;;2.50;;
71769;SDS011;66386;52.122;5.420;2023-04-01T15:12:26;5.60;;;3.03;;
71769;SDS011;66386;52.122;5.420;2023-04-01T15:15:03;4.93;;;2.67;;
71769;SDS011;66386;52.122;5.420;2023-04-01T15:17:44;4.55;;;3.05;;
71769;SDS011;66386;52.122;5.420;2023-04-01T15:23:12;3.67;;;2.55;;
71769;SDS011;66386;52.122;5.420;2023-04-01T15:32:17;2.83;;;1.90;;
71769;SDS011;66386;52.122;5.420;2023-04-01T15:38:05;2.90;;;1.98;;
71769;SDS011;66386;52.122;5.420;2023-04-01T15:43:24;2.90;;;2.17;;
71769;SDS011;66386;52.122;5.420;2023-04-01T15:57:21;2.45;;;1.70;;
71769;SDS011;66386;52.122;5.420;2023-04-01T16:00:10;2.40;;;1.60;;
71769;SDS011;66386;52.122;5.420;2023-04-01T16:02:44;2.17;;;1.60;;
71769;SDS011;66386;52.122;5.420;2023-04-01T16:08:13;2.97;;;1.80;;
71769;SDS011;66386;52.122;5.420;2023-04-01T16:13:24;3.50;;;2.33;;
71769;SDS011;66386;52.122;5.420;2023-04-01T16:24:48;3.60;;;2.55;;
71769;SDS011;66386;52.122;5.420;2023-04-01T16:29:49;2.60;;;2.20;;
71769;SDS011;66386;52.122;5.420;2023-04-01T16:32:25;3.25;;;2.47;;
71769;SDS011;66386;52.122;5.420;2023-04-01T16:34:58;2.97;;;2.10;;
71769;SDS011;66386;52.122;5.420;2023-04-01T16:41:00;4.82;;;2.67;;
71769;SDS011;66386;52.122;5.420;2023-04-01T16:43:50;3.27;;;2.63;;
71769;SDS011;66386;52.122;5.420;2023-04-01T16:46:32;3.72;;;2.85;;
71769;SDS011;66386;52.122;5.420;2023-04-01T16:54:28;5.30;;;2.85;;
71769;SDS011;66386;52.122;5.420;2023-04-01T16:59:36;3.90;;;2.92;;
71769;SDS011;66386;52.122;5.420;2023-04-01T17:02:12;3.17;;;2.42;;
71769;SDS011;66386;52.122;5.420;2023-04-01T17:10:16;4.10;;;2.47;;
71769;SDS011;66386;52.122;5.420;2023-04-01T17:12:47;3.40;;;2.47;;
71769;SDS011;66386;52.122;5.420;2023-04-01T17:21:10;3.17;;;2.50;;
71769;SDS011;66386;52.122;5.420;2023-04-01T17:23:52;2.77;;;2.30;;
71769;SDS011;66386;52.122;5.420;2023-04-01T17:26:40;2.85;;;2.55;;
71769;SDS011;66386;52.122;5.420;2023-04-01T17:32:31;2.45;;;1.90;;
71769;SDS011;66386;52.122;5.420;2023-04-01T17:38:22;2.97;;;2.33;;
71769;SDS011;66386;52.122;5.420;2023-04-01T17:41:31;2.83;;;2.33;;
71769;SDS011;66386;52.122;5.420;2023-04-01T17:44:20;3.85;;;2.97;;
71769;SDS011;66386;52.122;5.420;2023-04-01T17:47:11;3.35;;;2.30;;
71769;SDS011;66386;52.122;5.420;2023-04-01T17:49:55;3.15;;;2.20;;
71769;SDS011;66386;52.122;5.420;2023-04-01T17:52:39;2.53;;;2.33;;
71769;SDS011;66386;52.122;5.420;2023-04-01T17:57:51;2.88;;;2.50;;
71769;SDS011;66386;52.122;5.420;2023-04-01T18:00:30;2.97;;;2.47;;
71769;SDS011;66386;52.122;5.420;2023-04-01T18:06:17;2.80;;;2.27;;
71769;SDS011;66386;52.122;5.420;2023-04-01T18:08:49;2.45;;;2.22;;
71769;SDS011;66386;52.122;5.420;2023-04-01T18:22:44;3.30;;;2.67;;
71769;SDS011;66386;52.122;5.420;2023-04-01T18:25:17;3.55;;;3.10;;
71769;SDS011;66386;52.122;5.420;2023-04-01T18:30:51;2.80;;;2.58;;
71769;SDS011;66386;52.122;5.420;2023-04-01T18:33:29;3.63;;;3.00;;
71769;SDS011;66386;52.122;5.420;2023-04-01T18:36:22;4.57;;;3.33;;
71769;SDS011;66386;52.122;5.420;2023-04-01T18:38:53;3.33;;;2.83;;
71769;SDS011;66386;52.122;5.420;2023-04-01T18:49:53;3.05;;;2.75;;
71769;SDS011;66386;52.122;5.420;2023-04-01T18:52:42;4.80;;;2.85;;
71769;SDS011;66386;52.122;5.420;2023-04-01T18:58:14;3.22;;;2.92;;
71769;SDS011;66386;52.122;5.420;2023-04-01T19:00:45;3.33;;;2.87;;
71769;SDS011;66386;52.122;5.420;2023-04-01T19:03:31;3.72;;;3.08;;
71769;SDS011;66386;52.122;5.420;2023-04-01T19:05:59;3.55;;;3.10;;
71769;SDS011;66386;52.122;5.420;2023-04-01T19:08:35;4.13;;;2.95;;
71769;SDS011;66386;52.122;5.420;2023-04-01T19:11:20;4.28;;;3.15;;
71769;SDS011;66386;52.122;5.420;2023-04-01T19:14:03;2.90;;;2.47;;
71769;SDS011;66386;52.122;5.420;2023-04-01T19:16:52;3.72;;;2.90;;
71769;SDS011;66386;52.122;5.420;2023-04-01T19:19:28;3.25;;;2.72;;
71769;SDS011;66386;52.122;5.420;2023-04-01T19:22:43;2.63;;;2.40;;
71769;SDS011;66386;52.122;5.420;2023-04-01T19:42:15;3.40;;;2.70;;
71769;SDS011;66386;52.122;5.420;2023-04-01T19:50:38;3.92;;;3.00;;
71769;SDS011;66386;52.122;5.420;2023-04-01T19:53:09;5.07;;;3.10;;
71769;SDS011;66386;52.122;5.420;2023-04-01T19:58:58;4.57;;;3.15;;
71769;SDS011;66386;52.122;5.420;2023-04-01T20:01:44;3.90;;;3.38;;
71769;SDS011;66386;52.122;5.420;2023-04-01T20:07:06;4.47;;;3.85;;
71769;SDS011;66386;52.122;5.420;2023-04-01T20:15:42;5.32;;;4.18;;
71769;SDS011;66386;52.122;5.420;2023-04-01T20:21:05;5.70;;;4.82;;
71769;SDS011;66386;52.122;5.420;2023-04-01T20:23:50;5.90;;;4.50;;
71769;SDS011;66386;52.122;5.420;2023-04-01T20:26:23;6.53;;;4.75;;
71769;SDS011;66386;52.122;5.420;2023-04-01T20:31:44;7.90;;;5.38;;
71769;SDS011;66386;52.122;5.420;2023-04-01T20:34:42;6.10;;;5.05;;
71769;SDS011;66386;52.122;5.420;2023-04-01T20:37:32;6.87;;;5.03;;
71769;SDS011;66386;52.122;5.420;2023-04-01T20:43:07;5.65;;;4.82;;
71769;SDS011;66386;52.122;5.420;2023-04-01T20:48:42;6.30;;;4.97;;
71769;SDS011;66386;52.122;5.420;2023-04-01T20:51:13;5.97;;;4.90;;
71769;SDS011;66386;52.122;5.420;2023-04-01T20:59:34;5.63;;;4.55;;
71769;SDS011;66386;52.122;5.420;2023-04-01T21:02:30;6.60;;;4.78;;
71769;SDS011;66386;52.122;5.420;2023-04-01T21:08:17;7.93;;;4.30;;
71769;SDS011;66386;52.122;5.420;2023-04-01T21:13:38;5.43;;;4.68;;
71769;SDS011;66386;52.122;5.420;2023-04-01T21:16:40;5.70;;;5.00;;
71769;SDS011;66386;52.122;5.420;2023-04-01T21:24:53;5.30;;;3.88;;
71769;SDS011;66386;52.122;5.420;2023-04-01T22:01:21;5.67;;;4.30;;
71769;SDS011;66386;52.122;5.420;2023-04-01T22:07:14;6.47;;;4.60;;
71769;SDS011;66386;52.122;5.420;2023-04-01T22:12:50;7.60;;;4.38;;
71769;SDS011;66386;52.122;5.420;2023-04-01T22:18:25;9.30;;;5.40;;
71769;SDS011;66386;52.122;5.420;2023-04-01T22:21:03;9.50;;;4.80;;
71769;SDS011;66386;52.122;5.420;2023-04-01T22:27:00;5.90;;;4.22;;
71769;SDS011;66386;52.122;5.420;2023-04-01T22:29:41;5.47;;;4.50;;
71769;SDS011;66386;52.122;5.420;2023-04-01T22:32:19;5.72;;;4.18;;
71769;SDS011;66386;52.122;5.420;2023-04-01T22:40:25;5.53;;;3.85;;
71769;SDS011;66386;52.122;5.420;2023-04-01T22:51:13;6.63;;;5.30;;
71769;SDS011;66386;52.122;5.420;2023-04-01T22:56:22;8.07;;;5.20;;
71769;SDS011;66386;52.122;5.420;2023-04-01T22:59:06;6.30;;;4.70;;
71769;SDS011;66386;52.122;5.420;2023-04-01T23:01:36;9.57;;;5.97;;
71769;SDS011;66386;52.122;5.420;2023-04-01T23:04:11;12.77;;;5.47;;
71769;SDS011;66386;52.122;5.420;2023-04-01T23:06:45;9.55;;;5.85;;
71769;SDS011;66386;52.122;5.420;2023-04-01T23:14:55;10.15;;;6.47;;
71769;SDS011;66386;52.122;5.420;2023-04-01T23:20:12;11.82;;;6.03;;
71769;SDS011;66386;52.122;5.420;2023-04-01T23:23:06;8.57;;;5.70;;
71769;SDS011;66386;52.122;5.420;2023-04-01T23:28:39;8.93;;;5.78;;
71769;SDS011;66386;52.122;5.420;2023-04-01T23:34:00;7.45;;;5.45;;
71769;SDS011;66386;52.122;5.420;2023-04-01T23:36:29;8.93;;;5.77;;
71769;SDS011;66386;52.122;5.420;2023-04-01T23:39:04;7.47;;;5.85;;
71769;SDS011;66386;52.122;5.420;2023-04-01T23:41:47;11.60;;;6.15;;
71769;SDS011;66386;52.122;5.420;2023-04-01T23:44:14;10.27;;;6.25;;
71769;SDS011;66386;52.122;5.420;2023-04-01T23:46:42;12.55;;;7.28;;
71769;SDS011;66386;52.122;5.420;2023-04-01T23:49:21;11.50;;;6.87;;
71769;SDS011;66386;52.122;5.420;2023-04-01T23:57:26;14.05;;;7.55;;
